Time;durP1;ratioP1;P1;durP2;ratioP2;P2;SDS_P1;SDS_P2;PMS_P1;PMS_P2;Temp;Humidity;BMP_temperature;BMP_pressure;BME280_temperature;BME280_humidity;BME280_pressure;Samples;Min_cycle;Max_cycle;Signal;HPM_P1;HPM_P2
2022/06/14 00:01:30;;;;;;;15.27;8.93;;;21.00;99.90;;;;;;4879092;29;20049;-78
2022/06/14 00:03:58;;;;;;;15.40;7.57;;;20.90;99.90;;;;;;4877753;29;20056;-79
2022/06/14 00:06:29;;;;;;;16.10;7.65;;;20.90;99.90;;;;;;4879047;29;20044;-80
2022/06/14 00:08:58;;;;;;;16.10;7.60;;;20.90;99.90;;;;;;4878157;29;20105;-78
2022/06/14 00:11:30;;;;;;;16.13;8.05;;;20.80;99.90;;;;;;4878094;29;20140;-77
2022/06/14 00:14:00;;;;;;;16.35;7.55;;;20.80;99.90;;;;;;4868492;29;20046;-80
2022/06/14 00:16:29;;;;;;;16.05;7.53;;;20.80;99.90;;;;;;4867389;29;20077;-79
2022/06/14 00:18:57;;;;;;;14.90;7.17;;;20.70;99.90;;;;;;4868525;29;20105;-76
2022/06/14 00:21:24;;;;;;;10.02;5.85;;;20.70;99.90;;;;;;4867878;29;20072;-76
2022/06/14 00:23:51;;;;;;;11.43;6.22;;;20.60;99.90;;;;;;4866784;29;20073;-80
2022/06/14 00:26:19;;;;;;;10.20;6.55;;;20.60;99.90;;;;;;4860858;29;20053;-87
2022/06/14 00:28:46;;;;;;;13.32;6.55;;;20.80;99.90;;;;;;4861329;29;20521;-82
2022/06/14 00:31:17;;;;;;;12.57;6.65;;;20.90;99.90;;;;;;4861569;29;20106;-80
2022/06/14 00:33:45;;;;;;;13.73;6.53;;;20.80;99.90;;;;;;4861681;29;20455;-86
2022/06/14 00:36:23;;;;;;;10.73;6.22;;;20.70;99.90;;;;;;4861992;29;20041;-90
2022/06/14 00:38:51;;;;;;;12.85;6.53;;;20.70;99.90;;;;;;4860244;29;20041;-77
2022/06/14 00:41:47;;;;;;;13.88;6.30;;;20.70;99.90;;;;;;4859202;29;20526;-78
2022/06/14 00:44:29;;;;;;;11.05;6.13;;;20.70;99.90;;;;;;4854962;29;20064;-78
2022/06/14 00:47:11;;;;;;;16.30;6.90;;;20.50;99.90;;;;;;4843967;29;20133;-85
2022/06/14 00:49:48;;;;;;;10.73;6.20;;;20.30;99.90;;;;;;4843662;29;20057;-76
2022/06/14 00:52:24;;;;;;;12.63;7.40;;;20.30;99.90;;;;;;4860156;29;20064;-84
2022/06/14 00:55:00;;;;;;;12.45;6.90;;;20.40;99.90;;;;;;4859450;29;20121;-87
2022/06/14 00:57:32;;;;;;;13.38;6.85;;;20.20;99.90;;;;;;4877364;29;20041;-84
2022/06/14 01:00:07;;;;;;;12.55;7.60;;;20.30;99.90;;;;;;4862370;29;20103;-86
2022/06/14 01:02:44;;;;;;;14.48;6.63;;;20.20;99.90;;;;;;4878392;29;20080;-84
2022/06/14 01:06:05;;;;;;;12.38;6.97;;;20.20;99.90;;;;;;4878229;29;20210;-79
2022/06/14 01:08:26;;;;;;;12.45;6.65;;;20.30;99.90;;;;;;4878267;29;20482;-79
2022/06/14 01:10:54;;;;;;;12.68;6.90;;;20.40;99.90;;;;;;4879269;29;20057;-83
2022/06/14 01:13:23;;;;;;;14.05;7.13;;;20.40;99.90;;;;;;4878006;29;20083;-87
2022/06/14 01:15:54;;;;;;;14.00;6.50;;;20.40;99.90;;;;;;4862686;29;20461;-86
2022/06/14 01:18:23;;;;;;;11.35;6.68;;;20.30;99.90;;;;;;4878880;29;20065;-85
2022/06/14 01:20:51;;;;;;;13.20;6.50;;;20.60;99.90;;;;;;4877706;29;20143;-80
2022/06/14 01:23:18;;;;;;;10.98;6.82;;;20.60;99.90;;;;;;4878715;29;20081;-82
2022/06/14 01:26:10;;;;;;;10.52;6.97;;;20.60;99.90;;;;;;4862429;29;20055;-79
2022/06/14 01:28:40;;;;;;;13.68;7.20;;;20.60;99.90;;;;;;4870833;29;20490;-82
2022/06/14 01:31:08;;;;;;;13.70;7.38;;;20.70;99.90;;;;;;4878719;29;20053;-81
2022/06/14 01:34:06;;;;;;;15.88;7.80;;;20.60;99.90;;;;;;4877257;29;20045;-81
2022/06/14 01:36:37;;;;;;;14.18;7.18;;;20.60;99.90;;;;;;4877872;29;20049;-78
2022/06/14 01:39:08;;;;;;;13.38;6.90;;;20.60;99.90;;;;;;4877969;29;20065;-84
2022/06/14 01:41:55;;;;;;;11.55;6.90;;;20.60;99.90;;;;;;4877943;29;20450;-83
2022/06/14 01:44:40;;;;;;;13.60;7.07;;;20.60;99.90;;;;;;4878222;29;20499;-82
2022/06/14 01:48:02;;;;;;;11.15;6.65;;;20.70;99.90;;;;;;4877046;29;20196;-81
2022/06/14 01:53:49;;;;;;;14.38;6.78;;;20.50;99.90;;;;;;4876489;29;20498;-86
2022/06/14 01:56:20;;;;;;;15.55;6.78;;;20.50;99.90;;;;;;4849372;29;20140;-86
2022/06/14 01:58:47;;;;;;;11.07;6.85;;;20.60;99.90;;;;;;4862046;29;20037;-90
2022/06/14 02:01:21;;;;;;;11.68;6.53;;;20.60;99.90;;;;;;4878441;29;20078;-78
2022/06/14 02:07:10;;;;;;;11.27;6.05;;;20.30;99.90;;;;;;4877842;29;20409;-79
2022/06/14 02:09:37;;;;;;;8.93;6.25;;;20.50;99.90;;;;;;4876540;29;20068;-85
2022/06/14 02:12:08;;;;;;;12.35;6.63;;;20.50;99.90;;;;;;4876803;29;20071;-79
2022/06/14 02:14:49;;;;;;;13.07;6.00;;;20.40;99.90;;;;;;4876858;29;20049;-80
2022/06/14 02:17:33;;;;;;;9.35;6.03;;;20.40;99.90;;;;;;4876811;29;20052;-84
2022/06/14 02:20:22;;;;;;;10.45;6.32;;;20.50;99.90;;;;;;4876861;29;20446;-81
2022/06/14 02:22:58;;;;;;;11.00;6.13;;;20.50;99.90;;;;;;4876387;29;20501;-76
2022/06/14 02:25:34;;;;;;;12.27;6.60;;;20.60;99.90;;;;;;4876284;29;20076;-79
2022/06/14 02:28:07;;;;;;;14.25;6.38;;;20.50;99.90;;;;;;4876167;29;20170;-84
2022/06/14 02:30:43;;;;;;;12.02;6.32;;;20.30;99.90;;;;;;4876693;29;20560;-85
2022/06/14 02:33:19;;;;;;;14.05;8.07;;;20.40;99.90;;;;;;4880831;29;20133;-81
2022/06/14 02:36:11;;;;;;;10.13;5.90;;;20.50;99.90;;;;;;4879770;29;20089;-83
2022/06/14 02:38:44;;;;;;;10.82;6.80;;;20.50;99.90;;;;;;4879580;29;20470;-81
2022/06/14 02:41:35;;;;;;;9.68;6.72;;;20.30;99.90;;;;;;4880665;29;20057;-90
2022/06/14 02:44:09;;;;;;;;;;;20.40;99.90;;;;;;4880901;29;20109;-79
2022/06/14 02:46:45;;;;;;;9.88;5.85;;;20.40;99.90;;;;;;4880805;29;20272;-86
2022/06/14 02:49:17;;;;;;;12.48;5.95;;;20.30;99.90;;;;;;4880356;29;20466;-83
2022/06/14 02:51:49;;;;;;;12.52;5.38;;;20.40;99.90;;;;;;4879600;29;20081;-82
2022/06/14 02:54:54;;;;;;;8.75;5.97;;;20.50;99.90;;;;;;4863678;29;20398;-80
2022/06/14 02:57:38;;;;;;;8.73;5.15;;;20.50;99.90;;;;;;4868555;29;20403;-80
2022/06/14 03:00:08;;;;;;;13.27;6.00;;;20.30;99.90;;;;;;4880363;29;20459;-79
2022/06/14 03:02:42;;;;;;;;;;;20.30;99.90;;;;;;4880312;29;20505;-78
2022/06/14 03:05:29;;;;;;;9.45;5.07;;;20.30;99.90;;;;;;4880287;29;20018;-81
2022/06/14 03:08:05;;;;;;;10.15;5.57;;;20.30;99.90;;;;;;4879924;29;20045;-76
2022/06/14 03:10:45;;;;;;;11.07;5.30;;;20.30;99.90;;;;;;4879119;29;20128;-83
2022/06/14 03:13:38;;;;;;;10.30;7.00;;;20.40;99.90;;;;;;4879601;29;20109;-83
2022/06/14 03:16:05;;;;;;;8.25;5.35;;;20.30;99.90;;;;;;4880201;29;20120;-82
2022/06/14 03:18:50;;;;;;;14.15;5.85;;;20.30;99.90;;;;;;4863452;29;20045;-84
2022/06/14 03:21:39;;;;;;;15.52;5.85;;;20.30;99.90;;;;;;4863352;29;20556;-83
2022/06/14 03:24:55;;;;;;;10.43;5.70;;;20.30;99.90;;;;;;4879820;29;20105;-81
2022/06/14 03:27:36;;;;;;;10.68;5.80;;;20.40;99.90;;;;;;4864056;29;20113;-82
2022/06/14 03:30:07;;;;;;;10.80;5.95;;;20.50;99.90;;;;;;4878882;29;20053;-80
2022/06/14 03:32:46;;;;;;;9.93;5.40;;;20.60;99.90;;;;;;4880064;29;20081;-80
2022/06/14 03:35:53;;;;;;;9.43;5.45;;;20.60;99.90;;;;;;4879222;29;20068;-82
2022/06/14 03:38:29;;;;;;;10.85;5.72;;;20.60;99.90;;;;;;4808190;29;20507;-85
2022/06/14 03:40:57;;;;;;;11.68;5.38;;;20.60;99.90;;;;;;4823937;29;20149;-85
2022/06/14 03:43:25;;;;;;;14.98;6.13;;;20.70;99.90;;;;;;4855912;29;20057;-86
2022/06/14 03:46:03;;;;;;;12.10;6.22;;;20.70;99.90;;;;;;4880521;29;20486;-89
2022/06/14 03:48:35;;;;;;;9.60;5.78;;;20.70;99.90;;;;;;4881478;29;20048;-89
2022/06/14 03:51:19;;;;;;;11.70;6.75;;;20.80;99.90;;;;;;4881420;29;20037;-83
2022/06/14 03:54:02;;;;;;;11.75;6.32;;;20.80;99.90;;;;;;4881550;29;20037;-81
2022/06/14 03:56:38;;;;;;;10.57;6.15;;;20.70;99.90;;;;;;4880546;29;20485;-78
2022/06/14 03:59:35;;;;;;;10.27;5.85;;;20.60;99.90;;;;;;4881122;29;20075;-88
2022/06/14 04:02:09;;;;;;;10.77;5.70;;;20.60;99.90;;;;;;4880281;29;20562;-92
2022/06/14 04:05:02;;;;;;;15.02;6.65;;;20.80;99.90;;;;;;4880708;29;20053;-92
2022/06/14 04:08:04;;;;;;;8.85;5.55;;;20.70;99.90;;;;;;4879292;29;20450;-81
2022/06/14 04:10:46;;;;;;;10.80;5.80;;;20.80;99.90;;;;;;4859262;29;20148;-81
2022/06/14 04:13:26;;;;;;;11.38;5.38;;;20.90;99.90;;;;;;4877559;29;20053;-81
2022/06/14 04:16:02;;;;;;;12.83;6.63;;;20.90;99.90;;;;;;4879325;29;20073;-78
2022/06/14 04:18:50;;;;;;;18.23;5.85;;;21.00;99.90;;;;;;4878581;29;20071;-80
2022/06/14 04:22:00;;;;;;;15.15;5.90;;;20.90;99.90;;;;;;4878797;29;20076;-81
2022/06/14 04:24:53;;;;;;;10.88;5.78;;;20.90;99.90;;;;;;4791256;29;20049;-77
2022/06/14 04:27:33;;;;;;;12.27;6.13;;;21.00;99.90;;;;;;4822773;29;20058;-89
2022/06/14 04:30:06;;;;;;;11.45;6.15;;;21.00;99.90;;;;;;4862203;29;20461;-82
2022/06/14 04:32:53;;;;;;;10.30;5.60;;;21.10;99.90;;;;;;4877998;29;20107;-78
2022/06/14 04:35:52;;;;;;;12.48;6.47;;;21.00;99.90;;;;;;4878672;29;20454;-83
2022/06/14 04:38:22;;;;;;;16.40;8.30;;;20.80;99.90;;;;;;4873507;29;20137;-83
2022/06/14 04:41:13;;;;;;;13.57;6.75;;;20.90;99.90;;;;;;4878744;29;20045;-80
2022/06/14 04:43:52;;;;;;;;;;;20.80;99.90;;;;;;4878976;29;20041;-80
2022/06/14 04:46:37;;;;;;;25.42;15.93;;;20.80;99.90;;;;;;4862226;29;19946;-83
2022/06/14 04:49:35;;;;;;;36.42;22.63;;;20.90;99.90;;;;;;4878118;29;20795;-81
2022/06/14 04:52:10;;;;;;;93.00;60.88;;;21.10;99.90;;;;;;4877566;29;20124;-82
2022/06/14 04:54:47;;;;;;;25.98;14.02;;;21.10;99.90;;;;;;4876448;29;20140;-84
2022/06/14 04:57:24;;;;;;;14.25;8.20;;;21.10;99.90;;;;;;4878342;29;20097;-86
2022/06/14 05:00:17;;;;;;;15.18;8.48;;;21.10;99.90;;;;;;4877226;29;20080;-83
2022/06/14 05:03:04;;;;;;;14.15;7.65;;;21.10;99.90;;;;;;4877606;29;20443;-80
2022/06/14 05:05:39;;;;;;;14.68;8.98;;;21.20;99.90;;;;;;4861118;29;20553;-82
2022/06/14 05:08:09;;;;;;;19.67;11.30;;;21.30;99.90;;;;;;4877015;29;20106;-82
2022/06/14 05:10:46;;;;;;;18.17;11.30;;;21.30;99.90;;;;;;4877006;29;20057;-81
2022/06/14 05:13:29;;;;;;;16.85;9.88;;;21.30;99.90;;;;;;4877769;29;20132;-81
2022/06/14 05:16:02;;;;;;;20.63;10.20;;;21.30;99.90;;;;;;4877973;29;20561;-80
2022/06/14 05:18:54;;;;;;;110.95;76.72;;;21.40;99.90;;;;;;4876460;29;20513;-78
2022/06/14 05:21:33;;;;;;;34.92;24.85;;;21.40;99.90;;;;;;4877241;29;20080;-79
2022/06/14 05:24:01;;;;;;;28.45;20.35;;;21.40;99.90;;;;;;4876810;29;20047;-80
2022/06/14 05:26:45;;;;;;;24.27;14.98;;;21.40;99.90;;;;;;4876323;29;20602;-79
2022/06/14 05:29:17;;;;;;;21.85;11.32;;;21.60;99.90;;;;;;4875958;29;20053;-80
2022/06/14 05:32:10;;;;;;;15.73;9.65;;;21.60;99.90;;;;;;4861058;29;20114;-79
2022/06/14 05:34:52;;;;;;;16.23;9.68;;;21.40;99.90;;;;;;4861361;29;20045;-80
2022/06/14 05:37:34;;;;;;;15.18;9.73;;;21.60;99.90;;;;;;4875972;29;20061;-79
2022/06/14 05:40:09;;;;;;;15.25;10.45;;;21.80;99.90;;;;;;4874864;29;20266;-79
2022/06/14 05:42:44;;;;;;;16.15;10.15;;;21.70;99.90;;;;;;4876205;29;20048;-82
2022/06/14 05:45:17;;;;;;;17.38;10.63;;;21.80;99.90;;;;;;4874581;29;20520;-79
2022/06/14 05:47:50;;;;;;;14.70;8.38;;;21.90;99.90;;;;;;4859554;29;20053;-79
2022/06/14 05:50:23;;;;;;;13.73;7.13;;;21.90;99.90;;;;;;4875551;29;20049;-79
2022/06/14 05:53:04;;;;;;;14.48;7.78;;;21.90;99.90;;;;;;4877120;29;20105;-79
2022/06/14 05:55:46;;;;;;;15.20;7.50;;;22.00;99.90;;;;;;4877354;29;20044;-80
2022/06/14 05:58:24;;;;;;;13.07;7.57;;;22.00;99.90;;;;;;4877219;29;20128;-80
2022/06/14 06:01:18;;;;;;;20.08;7.28;;;22.00;99.90;;;;;;4876457;29;20045;-79
2022/06/14 06:03:54;;;;;;;40.92;26.67;;;22.30;99.90;;;;;;4876236;29;20045;-80
2022/06/14 06:06:29;;;;;;;24.42;16.15;;;22.50;99.90;;;;;;4878439;29;20077;-78
2022/06/14 06:09:20;;;;;;;71.10;46.63;;;22.60;99.90;;;;;;4881110;29;20037;-80
2022/06/14 06:11:56;;;;;;;25.92;18.33;;;22.60;99.90;;;;;;4880059;29;20401;-80
2022/06/14 06:14:38;;;;;;;16.33;8.55;;;22.70;99.90;;;;;;4880904;29;20458;-78
2022/06/14 06:17:47;;;;;;;12.88;6.60;;;22.80;99.90;;;;;;4881148;29;20049;-79
2022/06/14 06:20:43;;;;;;;17.77;7.40;;;22.90;99.90;;;;;;4823240;29;20099;-80
2022/06/14 06:23:22;;;;;;;9.45;7.03;;;22.80;99.90;;;;;;4815908;29;20153;-76
2022/06/14 06:25:54;;;;;;;14.80;6.03;;;23.00;99.90;;;;;;4863977;29;20061;-79
2022/06/14 06:28:37;;;;;;;11.05;6.22;;;23.20;99.90;;;;;;4880866;29;20494;-84
2022/06/14 06:31:27;;;;;;;11.82;7.35;;;23.20;99.90;;;;;;4879611;29;20472;-83
2022/06/14 06:33:57;;;;;;;10.95;7.13;;;23.30;99.90;;;;;;4879437;29;20059;-82
2022/06/14 06:36:36;;;;;;;14.88;8.60;;;23.50;99.90;;;;;;4878796;29;20048;-82
2022/06/14 06:39:39;;;;;;;13.27;7.82;;;23.50;99.90;;;;;;4879446;29;20053;-82
2022/06/14 06:42:41;;;;;;;13.18;6.22;;;23.60;99.90;;;;;;4880874;29;20093;-81
2022/06/14 06:45:12;;;;;;;11.77;6.45;;;23.70;99.90;;;;;;4871210;29;20553;-82
2022/06/14 06:47:52;;;;;;;11.23;6.30;;;23.40;99.90;;;;;;4879570;29;20485;-82
2022/06/14 06:50:27;;;;;;;10.02;5.75;;;23.20;99.90;;;;;;4879779;29;20049;-83
2022/06/14 06:53:15;;;;;;;9.35;6.32;;;23.10;99.90;;;;;;4864415;29;20068;-80
2022/06/14 06:55:46;;;;;;;10.38;5.93;;;23.30;99.90;;;;;;4880370;29;20105;-83
2022/06/14 06:58:39;;;;;;;7.97;5.55;;;23.30;99.90;;;;;;4880190;29;20387;-82
2022/06/14 07:01:31;;;;;;;9.85;5.07;;;23.20;99.90;;;;;;4878885;29;20053;-83
2022/06/14 07:04:20;;;;;;;11.25;5.25;;;23.20;99.90;;;;;;4868324;29;20057;-83
2022/06/14 07:06:55;;;;;;;10.77;6.05;;;23.30;99.90;;;;;;4880069;29;20049;-82
2022/06/14 07:09:43;;;;;;;10.90;6.47;;;23.40;99.90;;;;;;4878926;29;20056;-82
2022/06/14 07:12:19;;;;;;;7.57;4.63;;;23.50;99.90;;;;;;4876860;29;20455;-82
2022/06/14 07:14:52;;;;;;;9.77;5.30;;;23.30;99.90;;;;;;4879918;29;20091;-82
2022/06/14 07:17:41;;;;;;;7.75;5.03;;;23.40;99.90;;;;;;4863092;29;20105;-82
2022/06/14 07:20:31;;;;;;;9.93;5.47;;;23.30;99.90;;;;;;4880045;29;20067;-80
2022/06/14 07:23:27;;;;;;;7.75;5.10;;;23.30;99.90;;;;;;4879993;29;20053;-82
2022/06/14 07:26:13;;;;;;;7.78;5.70;;;23.30;99.90;;;;;;4879773;29;20088;-81
2022/06/14 07:28:52;;;;;;;11.77;5.38;;;23.30;99.90;;;;;;4880092;29;20097;-81
2022/06/14 07:31:31;;;;;;;9.50;5.00;;;23.40;99.90;;;;;;4879107;29;20049;-80
2022/06/14 07:34:00;;;;;;;12.32;5.40;;;23.30;99.90;;;;;;4878673;29;20056;-83
2022/06/14 07:36:40;;;;;;;8.20;5.32;;;23.40;99.90;;;;;;4879707;29;20069;-84
2022/06/14 07:39:23;;;;;;;8.93;5.32;;;23.40;99.90;;;;;;4876797;29;20113;-82
2022/06/14 07:42:06;;;;;;;8.55;5.22;;;23.60;99.90;;;;;;4878208;29;20053;-81
2022/06/14 07:45:13;;;;;;;10.02;5.22;;;23.70;99.90;;;;;;4879294;29;20049;-82
2022/06/14 07:47:53;;;;;;;7.38;4.80;;;23.70;99.90;;;;;;4879222;29;20401;-82
2022/06/14 07:50:43;;;;;;;7.13;4.63;;;23.80;99.90;;;;;;4879259;29;20045;-83
2022/06/14 07:53:26;;;;;;;7.72;5.18;;;23.80;99.90;;;;;;4862486;29;20056;-84
2022/06/14 07:56:25;;;;;;;7.95;4.45;;;23.90;99.90;;;;;;4878572;29;20100;-85
2022/06/14 07:58:55;;;;;;;10.13;4.80;;;23.80;99.90;;;;;;4862913;29;20656;-84
2022/06/14 08:01:52;;;;;;;8.88;5.32;;;23.80;99.90;;;;;;4862849;29;20541;-85
2022/06/14 08:04:31;;;;;;;6.13;4.38;;;24.10;99.90;;;;;;4878676;29;20402;-84
2022/06/14 08:07:02;;;;;;;9.55;6.15;;;24.10;99.90;;;;;;4878194;29;20097;-85
2022/06/14 08:09:43;;;;;;;11.52;4.90;;;24.30;99.90;;;;;;4863204;29;20568;-83
2022/06/14 08:12:33;;;;;;;7.60;5.05;;;24.30;99.90;;;;;;4876944;29;20149;-83
2022/06/14 08:15:10;;;;;;;8.00;5.38;;;24.30;99.90;;;;;;4878691;29;20044;-81
2022/06/14 08:17:49;;;;;;;8.65;5.55;;;24.50;99.90;;;;;;4876893;29;20037;-81
2022/06/14 08:20:48;;;;;;;11.57;5.72;;;24.50;99.90;;;;;;4878842;29;20049;-80
2022/06/14 08:23:25;;;;;;;10.13;5.15;;;24.70;99.90;;;;;;4861840;29;20049;-80
2022/06/14 08:25:59;;;;;;;6.70;4.47;;;24.70;99.90;;;;;;4878366;29;20049;-82
2022/06/14 08:28:34;;;;;;;7.00;4.72;;;24.60;99.90;;;;;;4877017;29;20048;-82
2022/06/14 08:31:26;;;;;;;9.35;6.50;;;24.60;99.90;;;;;;4877325;29;20159;-83
2022/06/14 08:34:18;;;;;;;7.72;5.65;;;24.70;99.90;;;;;;4862135;29;20101;-84
2022/06/14 08:36:53;;;;;;;9.05;5.20;;;24.90;99.90;;;;;;4877570;29;20076;-78
2022/06/14 08:39:49;;;;;;;10.35;5.05;;;24.80;99.90;;;;;;4877582;29;20073;-78
2022/06/14 08:42:25;;;;;;;6.95;5.10;;;24.80;99.90;;;;;;4877066;29;20471;-84
2022/06/14 08:45:14;;;;;;;6.40;5.03;;;24.70;99.90;;;;;;4877109;29;20072;-78
2022/06/14 08:48:10;;;;;;;7.82;5.68;;;24.70;99.90;;;;;;4876833;29;20056;-78
2022/06/14 08:50:48;;;;;;;10.02;5.95;;;24.80;99.90;;;;;;4877122;29;20045;-79
2022/06/14 08:53:49;;;;;;;11.60;6.38;;;25.00;99.90;;;;;;4876702;29;20048;-79
2022/06/14 08:56:22;;;;;;;11.38;5.50;;;24.80;99.90;;;;;;4861807;29;20121;-80
2022/06/14 08:59:24;;;;;;;7.95;5.38;;;24.70;99.90;;;;;;4863175;29;20050;-79
2022/06/14 09:02:10;;;;;;;7.25;5.18;;;24.80;99.90;;;;;;4858898;29;20158;-79
2022/06/14 09:04:56;;;;;;;6.65;4.65;;;25.00;99.90;;;;;;4843218;29;20072;-79
2022/06/14 09:08:01;;;;;;;6.47;4.75;;;25.20;99.90;;;;;;4859362;29;20109;-77
2022/06/14 09:10:47;;;;;;;7.18;4.90;;;25.00;99.90;;;;;;4859510;29;20049;-79
2022/06/14 09:13:53;;;;;;;7.05;4.88;;;25.00;99.90;;;;;;4842599;29;20084;-78
2022/06/14 09:16:37;;;;;;;6.70;4.40;;;24.90;99.40;;;;;;4837604;29;20074;-78
2022/06/14 09:19:25;;;;;;;8.45;6.00;;;25.00;99.90;;;;;;4859210;29;20044;-80
2022/06/14 09:22:27;;;;;;;12.48;7.40;;;25.30;99.50;;;;;;4843666;29;20421;-78
2022/06/14 09:25:33;;;;;;;9.38;5.63;;;25.60;99.00;;;;;;4813972;29;20061;-78
2022/06/14 09:28:18;;;;;;;6.78;5.32;;;25.60;98.40;;;;;;4804685;29;20057;-79
2022/06/14 09:30:52;;;;;;;8.48;5.03;;;25.60;98.60;;;;;;4859653;29;20053;-79
2022/06/14 09:33:28;;;;;;;8.65;4.97;;;25.70;99.00;;;;;;4868421;29;20560;-79
2022/06/14 09:36:15;;;;;;;6.15;4.85;;;25.90;98.10;;;;;;4868629;29;20037;-78
2022/06/14 09:39:07;;;;;;;9.88;5.00;;;26.10;98.30;;;;;;4868780;29;20045;-78
2022/06/14 09:41:43;;;;;;;8.90;4.80;;;26.10;97.90;;;;;;4871041;29;20084;-80
2022/06/14 09:44:20;;;;;;;5.97;4.70;;;26.30;97.50;;;;;;4871810;29;20160;-79
2022/06/14 09:47:29;;;;;;;9.82;5.18;;;26.20;97.80;;;;;;4871069;29;20493;-78
2022/06/14 09:50:30;;;;;;;7.68;4.82;;;26.30;98.10;;;;;;4844346;29;20168;-80
2022/06/14 09:53:20;;;;;;;6.32;4.25;;;26.30;96.50;;;;;;4861602;29;20140;-79
2022/06/14 09:56:10;;;;;;;8.15;4.88;;;26.40;96.40;;;;;;4861759;29;20045;-81
2022/06/14 09:59:05;;;;;;;7.05;4.82;;;26.40;96.30;;;;;;4873273;29;20067;-79
2022/06/14 10:01:59;;;;;;;8.65;4.55;;;26.20;95.80;;;;;;4881626;29;20075;-83
2022/06/14 10:05:13;;;;;;;6.85;4.65;;;26.20;95.50;;;;;;4881271;29;20051;-81
2022/06/14 10:08:03;;;;;;;5.88;4.47;;;26.00;95.90;;;;;;4881226;29;20446;-81
2022/06/14 10:10:39;;;;;;;7.55;4.38;;;26.00;97.20;;;;;;4864659;29;20493;-81
2022/06/14 10:13:31;;;;;;;7.93;4.60;;;26.10;95.70;;;;;;4864079;29;20064;-83
2022/06/14 10:16:15;;;;;;;7.65;4.95;;;26.00;95.50;;;;;;4864537;29;20069;-82
2022/06/14 10:19:04;;;;;;;6.70;4.85;;;26.00;97.10;;;;;;4876558;29;20103;-79
2022/06/14 10:22:03;;;;;;;11.52;6.97;;;26.00;97.50;;;;;;4877641;29;20064;-80
2022/06/14 10:24:39;;;;;;;8.02;4.82;;;25.80;97.40;;;;;;4874050;29;20053;-80
2022/06/14 10:30:39;;;;;;;9.23;5.32;;;25.60;96.70;;;;;;4870303;29;20047;-80
2022/06/14 10:33:10;;;;;;;11.25;4.85;;;25.60;97.20;;;;;;4853315;29;20366;-79
2022/06/14 10:35:53;;;;;;;10.32;6.22;;;25.50;96.50;;;;;;4863161;29;20060;-81
2022/06/14 10:38:42;;;;;;;17.23;5.75;;;25.50;96.40;;;;;;4866768;29;20571;-81
2022/06/14 10:41:22;;;;;;;7.00;5.00;;;25.60;97.00;;;;;;4882079;29;20481;-77
2022/06/14 10:44:25;;;;;;;15.30;5.22;;;25.60;97.10;;;;;;4878881;29;20090;-84
2022/06/14 10:47:14;;;;;;;6.55;4.95;;;25.70;97.20;;;;;;4881157;29;20545;-86
2022/06/14 10:50:10;;;;;;;9.90;4.32;;;26.00;96.50;;;;;;4878336;29;20053;-80
2022/06/14 10:53:19;;;;;;;7.82;5.10;;;26.10;96.00;;;;;;4863854;29;20528;-80
2022/06/14 10:56:05;;;;;;;6.55;4.70;;;26.10;95.40;;;;;;4821164;29;20106;-84
2022/06/14 10:59:02;;;;;;;11.27;5.30;;;25.90;95.50;;;;;;4869801;29;20131;-83
2022/06/14 11:01:29;;;;;;;7.20;4.45;;;25.90;94.70;;;;;;4857890;29;20105;-79
2022/06/14 11:04:12;;;;;;;7.65;5.05;;;25.90;95.20;;;;;;4876760;29;20389;-81
2022/06/14 11:07:16;;;;;;;6.70;4.63;;;26.20;94.90;;;;;;4872818;29;20561;-79
2022/06/14 11:10:06;;;;;;;11.60;6.25;;;26.50;95.20;;;;;;4831325;29;20061;-85
2022/06/14 11:13:08;;;;;;;12.65;5.68;;;26.80;94.70;;;;;;4860572;29;20462;-81
2022/06/14 11:16:00;;;;;;;6.28;4.32;;;27.00;94.20;;;;;;4872071;29;20076;-81
2022/06/14 11:18:51;;;;;;;7.28;4.60;;;27.00;94.00;;;;;;4860340;29;20435;-82
2022/06/14 11:21:34;;;;;;;6.40;4.63;;;27.00;94.30;;;;;;4875918;29;20068;-82
2022/06/14 11:24:38;;;;;;;8.75;5.70;;;27.10;94.30;;;;;;4845123;29;20128;-82
2022/06/14 11:27:53;;;;;;;7.43;4.68;;;27.40;92.80;;;;;;4846439;29;20540;-83
2022/06/14 11:30:45;;;;;;;9.68;4.80;;;26.90;93.30;;;;;;4866252;29;20053;-80
2022/06/14 11:33:35;;;;;;;9.80;4.70;;;26.70;93.60;;;;;;4865337;29;20072;-82
2022/06/14 11:36:21;;;;;;;;;;;26.50;93.10;;;;;;4869199;29;20056;-82
2022/06/14 11:39:10;;;;;;;6.82;4.20;;;26.40;93.00;;;;;;4870278;29;19931;-83
2022/06/14 11:41:45;;;;;;;7.07;4.82;;;26.30;92.70;;;;;;4870350;29;20412;-80
2022/06/14 11:44:40;;;;;;;8.55;5.07;;;26.30;92.10;;;;;;4861459;29;20440;-79
2022/06/14 11:47:21;;;;;;;7.75;4.22;;;26.20;92.50;;;;;;4870660;29;20056;-80
2022/06/14 11:50:10;;;;;;;8.20;4.60;;;26.00;92.80;;;;;;4878070;29;20565;-81
2022/06/14 11:53:11;;;;;;;10.73;4.40;;;26.00;93.70;;;;;;4878814;29;20041;-80
2022/06/14 11:55:53;;;;;;;7.75;3.70;;;26.00;93.90;;;;;;4879738;29;20099;-82
2022/06/14 11:58:43;;;;;;;7.55;4.18;;;25.90;94.10;;;;;;4872938;29;20090;-81
2022/06/14 12:01:38;;;;;;;5.63;3.93;;;25.90;93.90;;;;;;4859223;29;20114;-81
2022/06/14 12:04:31;;;;;;;6.15;3.67;;;26.10;93.90;;;;;;4849095;29;20667;-81
2022/06/14 12:07:28;;;;;;;5.68;3.60;;;26.70;91.80;;;;;;4879007;29;20047;-83
2022/06/14 12:10:07;;;;;;;6.18;3.40;;;27.00;90.60;;;;;;4877985;29;20053;-83
2022/06/14 12:13:12;;;;;;;5.25;3.65;;;27.00;90.90;;;;;;4849742;29;20049;-84
2022/06/14 12:16:07;;;;;;;11.75;4.30;;;27.20;90.90;;;;;;4871924;29;20053;-82
2022/06/14 12:18:38;;;;;;;5.57;3.63;;;27.40;90.30;;;;;;4896716;29;20069;-83
2022/06/14 12:21:42;;;;;;;6.13;3.70;;;27.50;91.30;;;;;;4878901;29;20053;-81
2022/06/14 12:24:17;;;;;;;7.22;4.03;;;27.40;93.30;;;;;;4859250;29;20072;-83
2022/06/14 12:26:55;;;;;;;8.93;4.20;;;27.40;93.40;;;;;;4848796;29;20060;-83
2022/06/14 12:29:33;;;;;;;7.72;4.10;;;27.00;93.00;;;;;;4875351;29;20061;-81
2022/06/14 12:32:11;;;;;;;6.25;4.18;;;26.80;92.80;;;;;;4876646;29;20064;-80
2022/06/14 12:34:48;;;;;;;8.38;4.05;;;26.50;93.40;;;;;;4877696;29;20132;-81
2022/06/14 12:37:22;;;;;;;6.25;3.75;;;26.40;93.40;;;;;;4878108;29;20052;-81
2022/06/14 12:39:56;;;;;;;7.25;4.25;;;26.50;93.10;;;;;;4876512;29;20040;-82
2022/06/14 12:42:50;;;;;;;10.73;4.20;;;26.50;94.00;;;;;;4877421;29;20052;-82
2022/06/14 12:45:22;;;;;;;8.77;4.10;;;26.80;93.70;;;;;;4876135;29;20170;-83
2022/06/14 12:47:50;;;;;;;5.63;3.83;;;26.50;93.20;;;;;;4876990;29;20045;-84
2022/06/14 12:50:25;;;;;;;8.48;3.85;;;26.90;93.00;;;;;;4876403;29;20068;-81
2022/06/14 12:52:57;;;;;;;7.05;3.90;;;27.00;91.40;;;;;;4875993;29;20060;-81
2022/06/14 12:55:39;;;;;;;8.38;4.30;;;26.90;91.60;;;;;;4860949;29;20068;-85
2022/06/14 12:58:48;;;;;;;5.47;3.65;;;26.80;92.30;;;;;;4873876;29;20051;-79
2022/06/14 13:01:43;;;;;;;8.48;3.60;;;27.10;90.90;;;;;;4858100;29;20065;-84
2022/06/14 13:04:25;;;;;;;9.00;4.55;;;27.50;89.40;;;;;;4859088;29;20045;-81
2022/06/14 13:06:55;;;;;;;10.17;4.70;;;27.60;89.50;;;;;;4843759;29;20049;-82
2022/06/14 13:09:35;;;;;;;8.18;4.50;;;27.90;90.10;;;;;;4859922;29;20353;-82
2022/06/14 13:12:21;;;;;;;;;;;28.00;88.30;;;;;;4859644;29;20046;-81
2022/06/14 13:15:17;;;;;;;6.55;3.92;;;28.00;88.40;;;;;;4844217;29;19928;-81
2022/06/14 13:17:58;;;;;;;6.97;3.55;;;27.90;87.90;;;;;;4860783;29;20074;-79
2022/06/14 13:20:34;;;;;;;7.13;4.40;;;28.30;88.80;;;;;;4844260;29;20061;-81
2022/06/14 13:23:08;;;;;;;7.50;4.43;;;28.60;86.30;;;;;;4860627;29;20407;-80
2022/06/14 13:25:53;;;;;;;8.18;4.32;;;28.70;85.20;;;;;;4843830;29;20094;-80
2022/06/14 13:28:59;;;;;;;7.45;3.63;;;28.60;85.00;;;;;;4858203;29;20509;-83
2022/06/14 13:31:27;;;;;;;14.35;5.80;;;28.80;84.20;;;;;;4859688;29;20511;-87
2022/06/14 13:34:03;;;;;;;7.05;4.00;;;29.00;85.80;;;;;;4859696;29;20125;-81
2022/06/14 13:37:08;;;;;;;8.13;3.90;;;28.90;82.30;;;;;;4843157;29;20057;-82
2022/06/14 13:39:51;;;;;;;11.15;4.25;;;28.90;82.50;;;;;;4849907;29;20132;-80
2022/06/14 13:42:45;;;;;;;7.82;4.22;;;29.00;81.20;;;;;;4842812;29;20351;-80
2022/06/14 13:45:21;;;;;;;6.95;4.07;;;29.10;81.40;;;;;;4859448;29;20052;-82
2022/06/14 13:47:59;;;;;;;10.95;4.25;;;29.10;80.20;;;;;;4859500;29;20052;-81
2022/06/14 13:50:44;;;;;;;5.22;3.63;;;29.40;80.40;;;;;;4858061;29;20144;-80
2022/06/14 13:53:14;;;;;;;8.63;3.45;;;29.40;78.90;;;;;;4859111;29;20097;-81
2022/06/14 13:55:45;;;;;;;9.80;3.75;;;29.20;78.20;;;;;;4859614;29;20118;-83
2022/06/14 13:58:37;;;;;;;9.63;3.92;;;29.40;79.40;;;;;;4859014;29;20170;-81
2022/06/14 14:01:24;;;;;;;5.25;3.22;;;29.70;77.30;;;;;;4878631;29;20461;-83
2022/06/14 14:04:28;;;;;;;7.07;3.60;;;29.90;74.70;;;;;;4861733;29;20049;-80
2022/06/14 14:07:11;;;;;;;9.20;4.43;;;29.70;76.40;;;;;;4877282;29;20100;-83
2022/06/14 14:10:12;;;;;;;9.15;4.32;;;30.10;76.80;;;;;;4877420;29;20100;-83
2022/06/14 14:12:50;;;;;;;7.10;3.65;;;30.70;76.80;;;;;;4878470;29;20437;-81
2022/06/14 14:15:29;;;;;;;5.18;3.50;;;30.50;75.60;;;;;;4876589;29;20057;-84